Time;durP1;ratioP1;P1;durP2;ratioP2;P2;SDS_P1;SDS_P2;PMS_P1;PMS_P2;Temp;Humidity;BMP_temperature;BMP_pressure;BME280_temperature;BME280_humidity;BME280_pressure;Samples;Min_cycle;Max_cycle;Signal;HPM_P1;HPM_P2
2023/06/05 00:01:45;;;;;;;2.78;1.92;;;18.70;70.10;;;;;;5095962;28;20035;-78
2023/06/05 00:04:10;;;;;;;2.72;1.50;;;18.70;70.20;;;;;;5077822;28;20020;-78
2023/06/05 00:06:37;;;;;;;5.18;1.70;;;18.60;70.30;;;;;;5095640;28;20032;-78
2023/06/05 00:09:03;;;;;;;5.65;1.45;;;18.60;70.40;;;;;;5060985;28;20154;-78
2023/06/05 00:11:29;;;;;;;3.30;1.60;;;18.60;70.40;;;;;;5077700;28;20024;-78
2023/06/05 00:13:55;;;;;;;3.00;1.40;;;18.60;70.30;;;;;;5095601;28;20484;-79
2023/06/05 00:16:20;;;;;;;4.15;1.48;;;18.70;70.20;;;;;;5077544;28;20475;-78
2023/06/05 00:18:46;;;;;;;3.28;1.05;;;18.70;70.20;;;;;;5095506;28;20031;-78
2023/06/05 00:21:12;;;;;;;2.25;1.40;;;18.70;70.20;;;;;;5095396;28;20109;-78
2023/06/05 00:23:38;;;;;;;2.00;1.40;;;18.70;70.10;;;;;;5094774;28;20107;-78
2023/06/05 00:26:04;;;;;;;3.67;1.77;;;18.60;70.10;;;;;;5095004;28;20547;-78
2023/06/05 00:28:30;;;;;;;1.83;1.40;;;18.70;70.10;;;;;;5077302;28;20111;-78
2023/06/05 00:30:55;;;;;;;3.03;1.50;;;18.70;70.10;;;;;;5095241;28;20115;-78
2023/06/05 00:33:21;;;;;;;4.22;2.20;;;18.70;70.10;;;;;;5094507;28;20531;-78
2023/06/05 00:35:47;;;;;;;2.90;1.25;;;18.70;70.10;;;;;;5095195;28;20064;-78
2023/06/05 00:38:12;;;;;;;2.25;1.10;;;18.70;70.10;;;;;;5077155;28;20424;-79
2023/06/05 00:40:38;;;;;;;2.42;1.80;;;18.70;70.20;;;;;;5095200;28;20084;-78
2023/06/05 00:43:05;;;;;;;3.72;1.30;;;18.60;70.20;;;;;;5095009;28;20032;-78
2023/06/05 00:45:31;;;;;;;3.40;1.30;;;18.60;70.20;;;;;;5094855;28;20035;-78
2023/06/05 00:47:57;;;;;;;5.28;1.58;;;18.70;70.80;;;;;;5094738;28;20060;-78
2023/06/05 00:50:23;;;;;;;2.83;1.63;;;18.70;70.00;;;;;;5076715;28;20119;-78
2023/06/05 00:52:50;;;;;;;3.17;1.23;;;18.80;69.80;;;;;;5094442;28;20079;-78
2023/06/05 00:55:16;;;;;;;4.78;1.92;;;18.80;69.90;;;;;;5076560;28;20472;-78
2023/06/05 00:57:44;;;;;;;3.50;1.70;;;18.80;69.80;;;;;;5094761;28;20047;-78
2023/06/05 01:00:12;;;;;;;3.88;1.80;;;18.70;69.80;;;;;;5094688;28;20081;-78
2023/06/05 01:02:39;;;;;;;2.47;1.63;;;18.70;70.10;;;;;;5093305;28;20024;-78
2023/06/05 01:05:06;;;;;;;3.17;1.95;;;18.60;70.20;;;;;;5094702;28;20062;-78
2023/06/05 01:07:37;;;;;;;2.97;1.10;;;18.50;70.50;;;;;;5094477;28;20036;-78
2023/06/05 01:10:05;;;;;;;1.88;1.17;;;18.40;70.60;;;;;;5094534;28;20036;-78
2023/06/05 01:12:56;;;;;;;4.22;1.95;;;18.50;70.50;;;;;;5094208;28;20031;-78
2023/06/05 01:15:28;;;;;;;1.60;0.90;;;18.50;70.50;;;;;;5094523;28;20035;-78
2023/06/05 01:17:58;;;;;;;2.35;1.20;;;18.50;70.40;;;;;;5094200;28;20058;-78
2023/06/05 01:20:41;;;;;;;2.05;1.45;;;18.60;70.30;;;;;;5093155;28;20089;-78
2023/06/05 01:23:08;;;;;;;3.33;1.90;;;18.60;70.20;;;;;;5093824;28;20043;-78
2023/06/05 01:25:36;;;;;;;3.45;1.63;;;18.60;70.30;;;;;;5094251;28;20035;-78
2023/06/05 01:28:18;;;;;;;5.00;2.30;;;18.50;70.30;;;;;;5075946;28;20468;-78
2023/06/05 01:31:01;;;;;;;2.80;1.75;;;18.40;70.80;;;;;;5094111;28;20039;-79
2023/06/05 01:33:43;;;;;;;3.70;2.47;;;18.30;71.30;;;;;;5093824;28;20469;-78
2023/06/05 01:36:11;;;;;;;2.80;1.37;;;18.20;71.40;;;;;;5094168;28;20028;-78
2023/06/05 01:38:38;;;;;;;5.32;2.33;;;18.10;71.40;;;;;;5093758;28;20040;-78
2023/06/05 01:41:05;;;;;;;3.67;2.45;;;18.20;71.50;;;;;;5093914;28;20038;-78
2023/06/05 01:43:32;;;;;;;5.00;2.90;;;18.10;71.70;;;;;;5093762;28;20081;-78
2023/06/05 01:45:59;;;;;;;4.05;1.90;;;18.00;72.00;;;;;;5093336;28;20032;-78
2023/06/05 01:48:27;;;;;;;4.10;2.95;;;17.90;72.10;;;;;;5093523;28;20065;-78
2023/06/05 01:51:00;;;;;;;3.50;1.85;;;17.90;72.10;;;;;;5075679;28;20455;-78
2023/06/05 01:53:27;;;;;;;4.63;3.20;;;17.80;72.40;;;;;;5075075;28;20425;-78
2023/06/05 01:55:56;;;;;;;5.13;3.00;;;17.70;73.40;;;;;;5093714;28;20032;-78
2023/06/05 01:58:25;;;;;;;4.38;2.50;;;17.40;73.50;;;;;;5093774;28;20028;-78
2023/06/05 02:00:52;;;;;;;3.10;1.80;;;17.30;73.90;;;;;;5093756;28;20465;-78
2023/06/05 02:03:20;;;;;;;6.20;3.45;;;17.30;74.00;;;;;;5093880;28;20052;-78
2023/06/05 02:05:46;;;;;;;7.68;4.15;;;17.30;74.30;;;;;;5093367;28;20076;-78
2023/06/05 02:08:13;;;;;;;4.18;2.67;;;17.10;75.00;;;;;;5093576;28;20036;-79
2023/06/05 02:10:42;;;;;;;5.82;3.20;;;16.80;75.60;;;;;;5093327;28;20090;-78
2023/06/05 02:13:08;;;;;;;6.15;3.33;;;16.80;76.40;;;;;;5093607;28;20069;-78
2023/06/05 02:15:35;;;;;;;4.05;3.00;;;16.80;75.70;;;;;;5093327;28;20419;-78
2023/06/05 02:18:02;;;;;;;5.38;3.00;;;16.80;75.90;;;;;;5093354;28;20024;-78
2023/06/05 02:20:28;;;;;;;7.03;2.90;;;16.80;75.90;;;;;;5075352;28;20051;-78
2023/06/05 02:22:54;;;;;;;4.47;2.75;;;16.90;76.30;;;;;;5093150;28;20029;-78
2023/06/05 02:25:21;;;;;;;7.38;3.22;;;16.90;75.50;;;;;;5058674;28;20028;-78
2023/06/05 02:27:47;;;;;;;2.63;2.40;;;17.00;75.30;;;;;;5075126;28;20480;-78
2023/06/05 02:30:13;;;;;;;2.60;2.15;;;16.80;75.80;;;;;;5093250;28;20043;-78
2023/06/05 02:32:43;;;;;;;5.20;2.72;;;16.80;75.80;;;;;;5093339;28;20028;-78
2023/06/05 02:35:10;;;;;;;3.90;2.25;;;17.00;75.60;;;;;;5076027;28;20024;-78
2023/06/05 02:37:43;;;;;;;4.68;3.05;;;17.10;75.30;;;;;;5093168;28;20036;-79
2023/06/05 02:40:10;;;;;;;4.10;2.67;;;17.20;74.90;;;;;;5093317;28;20060;-78
2023/06/05 02:42:36;;;;;;;4.20;2.90;;;17.30;74.60;;;;;;5093207;28;20107;-78
2023/06/05 02:45:02;;;;;;;8.07;3.40;;;17.30;74.50;;;;;;5093110;28;20036;-78
2023/06/05 02:47:28;;;;;;;4.22;3.42;;;17.20;74.70;;;;;;5093194;28;20056;-78
2023/06/05 02:49:54;;;;;;;6.60;4.38;;;17.00;75.10;;;;;;5093317;28;20028;-78
2023/06/05 02:52:21;;;;;;;5.57;2.90;;;16.70;75.60;;;;;;5075308;28;20041;-78
2023/06/05 02:54:47;;;;;;;7.70;4.53;;;16.70;76.10;;;;;;5092782;28;20036;-78
2023/06/05 02:57:14;;;;;;;8.07;4.80;;;16.70;76.40;;;;;;5096067;28;20392;-78
2023/06/05 02:59:39;;;;;;;6.43;4.40;;;16.50;76.90;;;;;;5078987;28;20039;-78
2023/06/05 03:02:06;;;;;;;6.95;4.05;;;16.30;77.90;;;;;;5078799;28;20024;-78
2023/06/05 03:04:34;;;;;;;7.70;5.43;;;16.20;77.50;;;;;;5096949;28;20457;-78
2023/06/05 03:07:04;;;;;;;7.30;5.80;;;16.20;78.00;;;;;;5079216;28;20043;-78
2023/06/05 03:09:30;;;;;;;10.95;5.38;;;16.00;78.70;;;;;;5096672;28;20039;-78
2023/06/05 03:11:57;;;;;;;7.25;4.05;;;15.90;79.00;;;;;;5096857;28;20116;-78
2023/06/05 03:14:22;;;;;;;9.38;5.30;;;16.00;78.70;;;;;;5096515;28;20044;-78
2023/06/05 03:16:48;;;;;;;5.70;4.45;;;16.20;78.30;;;;;;5096478;28;20039;-79
2023/06/05 03:19:14;;;;;;;5.18;4.50;;;16.20;78.00;;;;;;5096513;28;20043;-78
2023/06/05 03:21:41;;;;;;;7.78;4.90;;;16.30;77.90;;;;;;5096457;28;20035;-78
2023/06/05 03:24:14;;;;;;;5.13;3.25;;;16.20;78.00;;;;;;5096131;28;20016;-78
2023/06/05 03:26:40;;;;;;;6.00;3.88;;;16.20;78.00;;;;;;5096569;28;20100;-77
2023/06/05 03:29:07;;;;;;;6.43;4.82;;;16.20;77.80;;;;;;5096137;28;20040;-78
2023/06/05 03:31:33;;;;;;;4.55;2.65;;;16.20;77.90;;;;;;5096472;28;20028;-78
2023/06/05 03:33:59;;;;;;;5.95;4.03;;;16.30;77.90;;;;;;5096178;28;20055;-78
2023/06/05 03:36:27;;;;;;;5.55;4.80;;;16.30;77.70;;;;;;5096152;28;20077;-78
2023/06/05 03:38:53;;;;;;;5.60;3.72;;;16.20;77.80;;;;;;5078522;28;20036;-78
2023/06/05 03:41:19;;;;;;;4.43;3.00;;;16.30;77.70;;;;;;5078050;28;20035;-78
2023/06/05 03:43:46;;;;;;;6.22;4.68;;;16.40;77.50;;;;;;5096178;28;20468;-78
2023/06/05 03:46:18;;;;;;;5.78;4.57;;;16.50;77.10;;;;;;5095416;28;20468;-78
2023/06/05 03:48:48;;;;;;;;;;;16.40;77.30;;;;;;5096564;28;20048;-78
2023/06/05 03:51:18;;;;;;;7.75;5.22;;;16.40;77.40;;;;;;5096263;28;19908;-78
2023/06/05 03:53:54;;;;;;;10.02;5.32;;;16.30;77.50;;;;;;5077712;28;20464;-77
2023/06/05 03:56:21;;;;;;;8.52;5.88;;;16.30;77.80;;;;;;5096040;28;20036;-78
2023/06/05 03:58:48;;;;;;;8.48;5.40;;;16.20;77.70;;;;;;5095782;28;20042;-79
2023/06/05 04:01:14;;;;;;;7.38;5.25;;;16.10;78.10;;;;;;5095698;28;20036;-78
2023/06/05 04:03:40;;;;;;;5.97;4.25;;;16.00;78.50;;;;;;5095635;28;20086;-78
2023/06/05 04:06:05;;;;;;;5.45;3.88;;;15.90;78.60;;;;;;5077694;28;20377;-78
2023/06/05 04:08:32;;;;;;;9.23;5.90;;;16.10;78.70;;;;;;5076284;28;20030;-78
2023/06/05 04:10:57;;;;;;;7.05;4.75;;;16.00;78.50;;;;;;5095244;28;20123;-78
2023/06/05 04:13:23;;;;;;;7.95;5.72;;;16.10;78.60;;;;;;5095601;28;20540;-78
2023/06/05 04:15:49;;;;;;;4.85;3.75;;;16.10;78.50;;;;;;5095378;28;20024;-78
2023/06/05 04:18:15;;;;;;;4.65;3.15;;;16.10;78.60;;;;;;5095487;28;20028;-77
2023/06/05 04:20:41;;;;;;;9.27;5.43;;;16.20;78.40;;;;;;5095170;28;20139;-78
2023/06/05 04:23:06;;;;;;;7.35;4.80;;;16.30;78.00;;;;;;5094893;28;20433;-78
2023/06/05 04:25:32;;;;;;;4.05;3.05;;;16.10;78.10;;;;;;5095432;28;20457;-78
2023/06/05 04:27:58;;;;;;;9.52;6.03;;;16.20;78.30;;;;;;5076995;28;20124;-78
2023/06/05 04:30:24;;;;;;;4.82;4.28;;;16.20;78.10;;;;;;5076986;28;20047;-78
2023/06/05 04:32:54;;;;;;;7.38;5.20;;;16.10;78.20;;;;;;5077222;28;20032;-76
2023/06/05 04:35:20;;;;;;;9.60;6.35;;;16.10;78.40;;;;;;5094908;28;20025;-78
2023/06/05 04:37:46;;;;;;;7.00;4.57;;;16.10;78.50;;;;;;5077216;28;20036;-78
2023/06/05 04:40:12;;;;;;;4.57;3.55;;;15.90;78.80;;;;;;5094646;28;20035;-78
2023/06/05 04:42:38;;;;;;;6.88;3.80;;;16.00;78.90;;;;;;5059909;28;20035;-78
2023/06/05 04:45:07;;;;;;;9.00;3.95;;;16.20;78.50;;;;;;5076618;28;20028;-78
2023/06/05 04:47:33;;;;;;;10.05;5.40;;;16.20;78.30;;;;;;5094160;28;20137;-77
2023/06/05 04:50:00;;;;;;;9.38;6.32;;;16.20;78.30;;;;;;5094868;28;20036;-78
2023/06/05 04:52:26;;;;;;;6.25;3.95;;;16.00;79.00;;;;;;5076443;28;20040;-78
2023/06/05 04:54:52;;;;;;;7.75;6.00;;;15.80;79.70;;;;;;5094149;28;20046;-78
2023/06/05 04:57:18;;;;;;;6.20;4.82;;;15.70;80.10;;;;;;5094688;28;20036;-79
2023/06/05 04:59:44;;;;;;;7.78;5.65;;;15.70;80.20;;;;;;5094712;28;20028;-78
2023/06/05 05:02:10;;;;;;;8.50;5.40;;;15.80;80.00;;;;;;5094242;28;20036;-78
2023/06/05 05:04:36;;;;;;;8.40;5.28;;;15.80;79.90;;;;;;5094531;28;20030;-79
2023/06/05 05:07:01;;;;;;;9.13;5.47;;;15.60;80.50;;;;;;5094488;28;20036;-78
2023/06/05 05:09:28;;;;;;;11.07;5.07;;;15.50;81.00;;;;;;5076192;28;20388;-77
2023/06/05 05:11:53;;;;;;;5.60;3.45;;;15.60;80.90;;;;;;5094380;28;20028;-78
2023/06/05 05:14:19;;;;;;;6.70;4.30;;;15.70;80.70;;;;;;5075925;28;20521;-79
2023/06/05 05:16:46;;;;;;;8.57;6.10;;;15.90;80.30;;;;;;5094367;28;20051;-78
2023/06/05 05:19:12;;;;;;;11.25;6.22;;;15.90;80.00;;;;;;5094200;28;20388;-78
2023/06/05 05:21:37;;;;;;;7.85;4.35;;;15.80;80.30;;;;;;5094193;28;20032;-77
2023/06/05 05:24:03;;;;;;;11.32;5.32;;;15.80;80.50;;;;;;5094027;28;20032;-78
2023/06/05 05:26:30;;;;;;;8.55;6.45;;;15.90;80.40;;;;;;5093823;28;20044;-78
2023/06/05 05:28:55;;;;;;;9.75;4.68;;;15.80;80.40;;;;;;5075703;28;20071;-77
2023/06/05 05:31:22;;;;;;;6.57;4.40;;;15.80;80.70;;;;;;5093984;28;20059;-76
2023/06/05 05:33:48;;;;;;;8.88;4.75;;;15.90;80.60;;;;;;5093992;28;20031;-77
2023/06/05 05:36:14;;;;;;;6.78;4.95;;;15.90;80.40;;;;;;5093465;28;20460;-78
2023/06/05 05:38:40;;;;;;;8.27;6.20;;;15.90;80.50;;;;;;5093957;28;20028;-78
2023/06/05 05:41:06;;;;;;;8.70;6.40;;;15.80;80.90;;;;;;5093958;28;20028;-78
2023/06/05 05:43:31;;;;;;;8.25;5.90;;;15.60;81.30;;;;;;5075615;28;20515;-78
2023/06/05 05:45:57;;;;;;;7.47;3.97;;;15.70;81.50;;;;;;5075701;28;20028;-78
2023/06/05 05:48:24;;;;;;;8.07;5.60;;;15.80;81.20;;;;;;5075003;28;20078;-78
2023/06/05 05:50:50;;;;;;;8.25;5.45;;;16.00;80.90;;;;;;5093684;28;20040;-78
2023/06/05 05:53:15;;;;;;;7.82;4.55;;;16.10;80.60;;;;;;5093370;28;20085;-79
2023/06/05 05:55:41;;;;;;;11.38;6.18;;;16.10;80.40;;;;;;5093628;28;20035;-78
2023/06/05 05:58:07;;;;;;;8.32;5.32;;;16.10;80.30;;;;;;5092702;28;20032;-79
2023/06/05 06:00:34;;;;;;;8.02;4.50;;;16.10;80.40;;;;;;5091605;28;20394;-80
2023/06/05 06:03:00;;;;;;;7.43;4.63;;;16.10;80.40;;;;;;5093212;28;20028;-78
2023/06/05 06:05:25;;;;;;;6.50;3.67;;;16.20;80.40;;;;;;5092473;28;20039;-78
2023/06/05 06:07:52;;;;;;;9.70;5.00;;;16.30;80.10;;;;;;5086451;28;20058;-79
2023/06/05 06:10:17;;;;;;;9.57;4.82;;;16.50;79.50;;;;;;5075657;28;20075;-79
2023/06/05 06:12:45;;;;;;;10.13;5.13;;;16.60;79.40;;;;;;5092163;28;20052;-78
2023/06/05 06:15:11;;;;;;;8.25;5.47;;;16.60;79.20;;;;;;5091588;28;20079;-79
2023/06/05 06:17:37;;;;;;;9.02;5.38;;;16.60;79.20;;;;;;5075053;28;20036;-78
2023/06/05 06:20:05;;;;;;;7.93;4.00;;;16.40;79.50;;;;;;5092981;28;20028;-78
2023/06/05 06:22:31;;;;;;;8.45;4.47;;;16.40;79.80;;;;;;5092716;28;20035;-79
2023/06/05 06:24:57;;;;;;;8.10;4.07;;;16.50;79.80;;;;;;5091684;28;20028;-78
2023/06/05 06:27:22;;;;;;;6.40;4.00;;;16.60;79.50;;;;;;5075813;28;20041;-79
2023/06/05 06:29:55;;;;;;;8.02;4.97;;;16.80;78.90;;;;;;5092682;28;20494;-79
2023/06/05 06:32:22;;;;;;;5.55;3.47;;;16.80;78.40;;;;;;5097299;28;20103;-77
2023/06/05 06:34:47;;;;;;;7.20;4.68;;;16.90;78.30;;;;;;5096919;28;20032;-79
2023/06/05 06:37:15;;;;;;;6.85;4.30;;;17.10;77.70;;;;;;5078221;28;20055;-79
2023/06/05 06:39:41;;;;;;;8.75;4.75;;;17.20;77.30;;;;;;5096857;28;20031;-80
2023/06/05 06:42:09;;;;;;;8.50;4.55;;;17.10;77.40;;;;;;5081322;28;20028;-79
2023/06/05 06:44:35;;;;;;;9.00;5.55;;;17.10;77.60;;;;;;5097207;28;20024;-80
2023/06/05 06:47:01;;;;;;;7.75;4.70;;;17.10;77.30;;;;;;5097229;28;20063;-78
2023/06/05 06:49:27;;;;;;;7.03;5.00;;;16.90;77.80;;;;;;5095839;28;20044;-79
2023/06/05 06:51:53;;;;;;;9.90;4.90;;;16.90;78.40;;;;;;5095558;28;20054;-77
2023/06/05 06:54:19;;;;;;;10.27;4.53;;;16.90;78.70;;;;;;5095884;28;20028;-78
2023/06/05 06:56:45;;;;;;;10.00;4.72;;;17.00;78.50;;;;;;5094981;28;20494;-78
2023/06/05 06:59:12;;;;;;;8.20;5.28;;;17.10;78.40;;;;;;5079991;28;20028;-79
2023/06/05 07:01:46;;;;;;;7.85;4.50;;;17.00;77.60;;;;;;5080125;28;20465;-78
2023/06/05 07:04:19;;;;;;;8.98;4.70;;;16.80;78.50;;;;;;5095297;28;20418;-79
2023/06/05 07:06:46;;;;;;;7.57;4.60;;;16.80;78.40;;;;;;5093897;28;20468;-77
2023/06/05 07:09:12;;;;;;;6.85;4.50;;;16.80;78.30;;;;;;5096146;28;20028;-79
2023/06/05 07:11:38;;;;;;;7.85;4.43;;;16.90;78.40;;;;;;5078159;28;20145;-77
2023/06/05 07:14:04;;;;;;;7.45;4.80;;;17.10;78.60;;;;;;5096911;28;20040;-78
2023/06/05 07:16:29;;;;;;;7.85;4.13;;;17.20;78.40;;;;;;5096499;28;20036;-78
2023/06/05 07:18:55;;;;;;;8.57;4.07;;;17.20;78.20;;;;;;5096648;28;20036;-78
2023/06/05 07:21:22;;;;;;;7.78;4.10;;;17.30;78.40;;;;;;5096505;28;20105;-79
2023/06/05 07:23:54;;;;;;;8.57;3.97;;;17.50;77.60;;;;;;5061227;28;20158;-79
2023/06/05 07:26:21;;;;;;;9.80;4.60;;;17.50;77.70;;;;;;5096596;28;20484;-78
2023/06/05 07:28:48;;;;;;;7.07;4.10;;;17.40;76.70;;;;;;5079423;28;20032;-78
2023/06/05 07:31:14;;;;;;;8.85;3.78;;;17.40;77.10;;;;;;5078563;28;20024;-78
2023/06/05 07:33:41;;;;;;;9.63;4.10;;;17.60;77.70;;;;;;5096670;28;20024;-78
2023/06/05 07:36:07;;;;;;;7.57;3.75;;;17.70;77.20;;;;;;5078282;28;20029;-79
2023/06/05 07:38:33;;;;;;;6.47;3.67;;;17.80;77.60;;;;;;5096340;28;20410;-79
2023/06/05 07:41:01;;;;;;;8.43;4.38;;;17.90;77.30;;;;;;5096376;28;20032;-78
2023/06/05 07:43:27;;;;;;;7.05;3.53;;;18.10;76.30;;;;;;5095186;28;20116;-78
2023/06/05 07:45:53;;;;;;;10.05;4.70;;;18.00;76.80;;;;;;5096211;28;20442;-78
2023/06/05 07:48:19;;;;;;;10.20;4.60;;;17.80;76.70;;;;;;5095261;28;20066;-78
2023/06/05 07:50:45;;;;;;;10.15;3.80;;;17.80;77.30;;;;;;5095551;28;20051;-79
2023/06/05 07:53:11;;;;;;;6.32;3.78;;;17.80;77.40;;;;;;5094775;28;20016;-79
2023/06/05 07:55:36;;;;;;;6.97;4.10;;;17.90;77.40;;;;;;5095186;28;20111;-80
2023/06/05 07:58:02;;;;;;;11.63;4.60;;;18.10;77.00;;;;;;5095032;28;20028;-79
2023/06/05 08:00:28;;;;;;;13.20;4.38;;;18.20;76.90;;;;;;5077142;28;20032;-78
2023/06/05 08:02:53;;;;;;;9.20;3.80;;;18.20;76.70;;;;;;5095153;28;20032;-79
2023/06/05 08:05:19;;;;;;;8.95;4.63;;;18.20;76.90;;;;;;5094978;28;20017;-80
2023/06/05 08:07:46;;;;;;;9.02;4.18;;;18.20;77.00;;;;;;5094785;28;20063;-79
2023/06/05 08:10:12;;;;;;;9.52;4.63;;;18.20;77.00;;;;;;5077234;28;20016;-79
2023/06/05 08:12:38;;;;;;;9.85;4.15;;;18.40;77.60;;;;;;5071422;28;20081;-79
2023/06/05 08:15:05;;;;;;;7.78;4.03;;;18.50;77.80;;;;;;5095253;28;20473;-79
2023/06/05 08:17:31;;;;;;;7.60;4.10;;;18.70;77.30;;;;;;5094732;28;20032;-79
2023/06/05 08:19:56;;;;;;;9.32;4.18;;;18.80;76.00;;;;;;5077321;28;20039;-78
2023/06/05 08:22:22;;;;;;;7.90;3.80;;;18.80;76.90;;;;;;5076580;28;20032;-78
2023/06/05 08:24:49;;;;;;;10.30;4.50;;;18.90;77.20;;;;;;5076250;28;20020;-79
2023/06/05 08:27:19;;;;;;;6.88;4.28;;;19.00;75.70;;;;;;5094983;28;20028;-79
2023/06/05 08:29:44;;;;;;;6.22;3.80;;;19.00;76.00;;;;;;5095152;28;20032;-79
2023/06/05 08:32:10;;;;;;;5.57;2.67;;;19.10;75.50;;;;;;5076460;28;20111;-80
2023/06/05 08:34:36;;;;;;;8.18;4.20;;;19.40;76.40;;;;;;5094841;28;20025;-80
2023/06/05 08:37:02;;;;;;;8.05;3.42;;;19.50;74.90;;;;;;5077530;28;20040;-76
2023/06/05 08:39:31;;;;;;;7.18;3.72;;;19.70;75.60;;;;;;5092926;28;20027;-79
2023/06/05 08:42:00;;;;;;;7.40;4.10;;;19.80;74.70;;;;;;5092032;28;20488;-80
2023/06/05 08:44:30;;;;;;;8.00;4.50;;;19.90;73.90;;;;;;5094571;28;20024;-80
2023/06/05 08:47:01;;;;;;;7.57;4.13;;;19.90;73.60;;;;;;5091991;28;20031;-79
2023/06/05 08:49:36;;;;;;;9.20;4.07;;;19.90;73.50;;;;;;5093810;28;20120;-79
2023/06/05 08:52:06;;;;;;;9.45;4.00;;;20.00;74.10;;;;;;5092762;28;20032;-82
2023/06/05 08:54:38;;;;;;;6.70;3.88;;;20.20;73.10;;;;;;5093372;28;20411;-82
2023/06/05 08:57:06;;;;;;;7.90;4.00;;;20.30;73.50;;;;;;5093769;28;20098;-78
2023/06/05 08:59:32;;;;;;;8.10;3.63;;;20.30;73.40;;;;;;5075556;28;20032;-79
2023/06/05 09:01:58;;;;;;;6.43;3.78;;;20.40;73.40;;;;;;5093775;28;20024;-79
2023/06/05 09:04:25;;;;;;;7.18;3.17;;;20.60;73.90;;;;;;5075693;28;20058;-79
2023/06/05 09:06:54;;;;;;;5.82;3.20;;;20.70;72.80;;;;;;5076038;28;20459;-79
2023/06/05 09:09:20;;;;;;;5.72;3.28;;;20.90;73.20;;;;;;5076783;28;20058;-79
2023/06/05 09:11:46;;;;;;;7.43;3.80;;;21.10;72.10;;;;;;5094221;28;20036;-78
2023/06/05 09:14:12;;;;;;;6.78;3.35;;;21.20;71.50;;;;;;5094611;28;20069;-78
2023/06/05 09:16:43;;;;;;;7.72;3.63;;;21.20;71.50;;;;;;5059777;28;20047;-79
2023/06/05 09:19:11;;;;;;;6.00;3.25;;;21.30;71.40;;;;;;5094152;28;20028;-79
2023/06/05 09:21:37;;;;;;;7.28;3.55;;;21.40;71.30;;;;;;5093689;28;20020;-78
2023/06/05 09:24:19;;;;;;;10.07;3.72;;;21.50;70.70;;;;;;5093106;28;20032;-79
2023/06/05 09:26:51;;;;;;;7.10;3.67;;;21.40;69.90;;;;;;5075310;28;20114;-78
2023/06/05 09:29:28;;;;;;;7.45;3.33;;;21.20;70.50;;;;;;5093605;28;20032;-78
2023/06/05 09:32:02;;;;;;;8.75;3.45;;;21.20;71.20;;;;;;5091750;28;20064;-78
2023/06/05 09:34:35;;;;;;;7.78;3.67;;;21.30;71.80;;;;;;5094232;28;20024;-79
2023/06/05 09:37:09;;;;;;;6.68;3.42;;;21.40;71.30;;;;;;5094374;28;20035;-78
2023/06/05 09:39:40;;;;;;;6.13;3.50;;;21.50;70.40;;;;;;5075941;28;20467;-79
2023/06/05 09:42:06;;;;;;;10.90;4.05;;;21.60;70.50;;;;;;5074832;28;20384;-80
2023/06/05 09:44:33;;;;;;;8.85;3.72;;;21.80;69.70;;;;;;5093200;28;20036;-79
2023/06/05 09:47:09;;;;;;;8.15;4.00;;;21.80;69.00;;;;;;5092983;28;20031;-80
2023/06/05 09:49:40;;;;;;;11.32;3.55;;;21.70;70.20;;;;;;5091563;28;20511;-80
2023/06/05 09:52:11;;;;;;;7.70;3.50;;;21.80;70.90;;;;;;5090884;28;20061;-80
2023/06/05 09:54:39;;;;;;;7.18;3.95;;;21.90;69.80;;;;;;5093391;28;20353;-79
2023/06/05 09:57:09;;;;;;;7.65;4.82;;;22.10;69.50;;;;;;5099780;28;20383;-80
2023/06/05 09:59:50;;;;;;;6.78;3.63;;;22.20;68.10;;;;;;5058397;28;20512;-79
2023/06/05 10:02:17;;;;;;;7.47;4.18;;;22.10;68.90;;;;;;5091645;28;20028;-80
2023/06/05 10:04:49;;;;;;;6.18;3.78;;;22.20;68.50;;;;;;5091706;28;20363;-79
2023/06/05 10:07:15;;;;;;;4.65;3.55;;;22.20;67.90;;;;;;5091787;28;20396;-78
2023/06/05 10:09:42;;;;;;;3.75;2.67;;;22.20;67.70;;;;;;5074519;28;20043;-80
2023/06/05 10:12:08;;;;;;;8.30;3.40;;;22.20;68.80;;;;;;5068992;28;20081;-80
2023/06/05 10:14:35;;;;;;;6.72;3.28;;;22.40;67.80;;;;;;5092397;28;20032;-79
2023/06/05 10:17:02;;;;;;;7.60;3.03;;;22.70;67.60;;;;;;5092753;28;20561;-79
2023/06/05 10:19:29;;;;;;;8.20;3.67;;;22.90;66.90;;;;;;5093851;28;20028;-78
2023/06/05 10:21:55;;;;;;;5.43;2.88;;;22.90;65.90;;;;;;5092819;28;20081;-80
2023/06/05 10:24:25;;;;;;;8.75;4.05;;;23.00;66.20;;;;;;5092065;28;20016;-79
2023/06/05 10:27:12;;;;;;;9.60;3.63;;;23.10;66.30;;;;;;5092612;28;20028;-80
2023/06/05 10:30:06;;;;;;;6.22;3.22;;;23.00;66.10;;;;;;5091641;28;20028;-80
2023/06/05 10:32:59;;;;;;;8.35;3.65;;;22.90;66.30;;;;;;5090838;28;20025;-80
2023/06/05 10:36:00;;;;;;;7.43;2.75;;;22.90;66.70;;;;;;5089779;28;20031;-79
2023/06/05 10:38:28;;;;;;;7.68;3.33;;;23.00;66.50;;;;;;5092756;28;20028;-80
2023/06/05 10:40:59;;;;;;;8.20;4.13;;;23.20;66.20;;;;;;5092822;28;20077;-79
2023/06/05 10:43:32;;;;;;;8.18;3.58;;;23.30;65.50;;;;;;5074501;28;20449;-80
2023/06/05 10:46:23;;;;;;;6.15;3.50;;;23.30;65.10;;;;;;5092543;28;20028;-74
2023/06/05 10:49:11;;;;;;;3.80;2.88;;;23.30;65.80;;;;;;5076151;28;20115;-79
2023/06/05 10:51:37;;;;;;;5.78;2.95;;;23.50;64.70;;;;;;5091695;28;20032;-79
2023/06/05 10:54:07;;;;;;;6.78;3.15;;;23.70;65.50;;;;;;5092296;28;20035;-80
2023/06/05 10:56:58;;;;;;;6.55;3.30;;;23.90;64.30;;;;;;5075363;28;20480;-80
2023/06/05 10:59:29;;;;;;;7.82;3.30;;;24.00;64.10;;;;;;5093117;28;20024;-77
2023/06/05 11:02:16;;;;;;;6.50;3.00;;;23.80;64.80;;;;;;5093294;28;20039;-79
2023/06/05 11:04:47;;;;;;;4.93;3.03;;;23.90;65.20;;;;;;5075055;28;20032;-79
2023/06/05 11:07:26;;;;;;;6.63;3.40;;;23.90;64.50;;;;;;5075204;28;20384;-80
2023/06/05 11:10:22;;;;;;;5.65;3.05;;;24.00;63.90;;;;;;5074933;28;20044;-80
2023/06/05 11:12:51;;;;;;;4.93;3.00;;;24.20;63.80;;;;;;5072659;28;20043;-81
2023/06/05 11:15:39;;;;;;;4.78;2.60;;;24.20;63.30;;;;;;5093681;28;20107;-81
2023/06/05 11:18:31;;;;;;;5.88;3.13;;;24.20;63.60;;;;;;5096533;28;20024;-80
2023/06/05 11:20:57;;;;;;;6.33;2.67;;;24.40;64.00;;;;;;5078767;28;20054;-80
2023/06/05 11:23:27;;;;;;;4.82;2.30;;;24.50;62.80;;;;;;5095992;28;20278;-80
2023/06/05 11:25:56;;;;;;;6.35;2.65;;;24.60;62.80;;;;;;5097319;28;20097;-80
2023/06/05 11:28:41;;;;;;;3.90;2.63;;;24.80;62.00;;;;;;5096959;28;20024;-81
2023/06/05 11:31:07;;;;;;;4.32;2.50;;;24.80;61.50;;;;;;5096774;28;20093;-80
2023/06/05 11:33:33;;;;;;;3.65;2.30;;;24.80;61.00;;;;;;5096603;28;20380;-80
2023/06/05 11:36:05;;;;;;;5.43;2.20;;;24.80;61.50;;;;;;5096817;28;20411;-79
2023/06/05 11:38:31;;;;;;;7.03;2.00;;;24.90;61.70;;;;;;5096400;28;20040;-80
2023/06/05 11:40:57;;;;;;;6.55;1.77;;;25.00;60.90;;;;;;5096311;28;20031;-80
2023/06/05 11:43:23;;;;;;;3.63;2.10;;;25.20;60.30;;;;;;5095662;28;20024;-80
2023/06/05 11:45:53;;;;;;;5.35;3.00;;;25.40;61.00;;;;;;5095770;28;20036;-80
2023/06/05 11:48:19;;;;;;;4.00;2.33;;;25.40;60.00;;;;;;5077757;28;20071;-80
2023/06/05 11:51:03;;;;;;;4.78;2.60;;;25.30;60.40;;;;;;5078125;28;20055;-80
2023/06/05 11:53:30;;;;;;;6.60;2.70;;;25.10;59.10;;;;;;5096163;28;20024;-81
2023/06/05 11:58:30;;;;;;;2.88;1.80;;;25.10;60.10;;;;;;5095849;28;20388;-80
2023/06/05 12:01:25;;;;;;;2.17;1.70;;;25.20;59.80;;;;;;5095879;28;20024;-80
2023/06/05 12:04:07;;;;;;;6.00;2.00;;;25.20;60.10;;;;;;5096209;28;20064;-80
2023/06/05 12:06:41;;;;;;;3.83;2.83;;;25.40;59.10;;;;;;5057475;28;20048;-80
2023/06/05 12:09:09;;;;;;;3.25;2.20;;;25.40;58.10;;;;;;5075590;28;20062;-80
2023/06/05 12:11:35;;;;;;;5.18;2.40;;;25.30;59.40;;;;;;5075929;28;20480;-80
2023/06/05 12:14:01;;;;;;;4.00;1.85;;;25.50;59.00;;;;;;5075618;28;20025;-80
2023/06/05 12:16:45;;;;;;;4.90;2.00;;;25.50;59.10;;;;;;5075220;28;20433;-81
2023/06/05 12:19:16;;;;;;;6.38;2.10;;;25.60;58.80;;;;;;5075222;28;20047;-80
2023/06/05 12:21:44;;;;;;;8.63;2.20;;;25.80;58.40;;;;;;5074518;28;20464;-80
2023/06/05 12:24:09;;;;;;;4.60;1.88;;;25.80;57.80;;;;;;5075472;28;20043;-80
2023/06/05 12:26:58;;;;;;;5.03;2.78;;;25.80;57.40;;;;;;5075562;28;20028;-81
2023/06/05 12:29:28;;;;;;;5.38;3.13;;;25.80;57.40;;;;;;5074440;28;20047;-79
2023/06/05 12:31:55;;;;;;;4.22;1.70;;;25.60;57.50;;;;;;5073868;28;20465;-80
2023/06/05 12:34:50;;;;;;;4.65;1.83;;;25.30;57.60;;;;;;5075223;28;20025;-80
2023/06/05 12:37:31;;;;;;;5.05;1.80;;;25.40;58.40;;;;;;5073733;28;20059;-79
2023/06/05 12:40:01;;;;;;;4.50;1.30;;;25.60;58.30;;;;;;5058278;28;20064;-81
2023/06/05 12:42:27;;;;;;;3.15;1.90;;;25.70;58.10;;;;;;5074809;28;20029;-82
2023/06/05 12:44:54;;;;;;;5.15;1.38;;;25.60;56.90;;;;;;5074899;28;20532;-80
2023/06/05 12:47:20;;;;;;;4.18;2.10;;;25.70;58.00;;;;;;5074578;28;20423;-80
2023/06/05 12:49:46;;;;;;;3.70;1.80;;;25.70;56.30;;;;;;5074900;28;20053;-81
2023/06/05 12:52:12;;;;;;;8.15;2.65;;;25.80;57.50;;;;;;5074721;28;20025;-80
2023/06/05 12:54:38;;;;;;;6.15;1.85;;;25.80;56.80;;;;;;5073031;28;20385;-80
2023/06/05 12:57:07;;;;;;;3.22;1.92;;;25.80;57.60;;;;;;5074316;28;20436;-81